sensor_id;sensor_type;location;lat;lon;timestamp;P1;durP1;ratioP1;P2;durP2;ratioP2
19059;SDS011;9663;48.996;8.334;2022-12-07T00:03:39;5.22;;;2.72;;
19059;SDS011;9663;48.996;8.334;2022-12-07T00:06:10;5.47;;;2.50;;
19059;SDS011;9663;48.996;8.334;2022-12-07T00:08:38;5.20;;;2.40;;
19059;SDS011;9663;48.996;8.334;2022-12-07T00:11:05;5.55;;;2.70;;
19059;SDS011;9663;48.996;8.334;2022-12-07T00:13:37;5.32;;;2.55;;
19059;SDS011;9663;48.996;8.334;2022-12-07T00:16:05;6.18;;;2.72;;
19059;SDS011;9663;48.996;8.334;2022-12-07T00:18:39;5.30;;;2.08;;
19059;SDS011;9663;48.996;8.334;2022-12-07T00:21:07;5.18;;;2.25;;
19059;SDS011;9663;48.996;8.334;2022-12-07T00:23:37;6.38;;;2.65;;
19059;SDS011;9663;48.996;8.334;2022-12-07T00:26:11;5.95;;;2.72;;
19059;SDS011;9663;48.996;8.334;2022-12-07T00:28:40;5.10;;;2.38;;
19059;SDS011;9663;48.996;8.334;2022-12-07T00:31:10;5.45;;;2.67;;
19059;SDS011;9663;48.996;8.334;2022-12-07T00:33:37;6.00;;;2.70;;
19059;SDS011;9663;48.996;8.334;2022-12-07T00:36:05;5.55;;;2.83;;
19059;SDS011;9663;48.996;8.334;2022-12-07T00:38:37;5.63;;;2.95;;
19059;SDS011;9663;48.996;8.334;2022-12-07T00:41:05;7.15;;;3.00;;
19059;SDS011;9663;48.996;8.334;2022-12-07T00:43:35;7.03;;;3.22;;
19059;SDS011;9663;48.996;8.334;2022-12-07T00:46:01;5.93;;;2.78;;
19059;SDS011;9663;48.996;8.334;2022-12-07T00:48:27;7.30;;;3.10;;
19059;SDS011;9663;48.996;8.334;2022-12-07T00:50:53;5.72;;;2.90;;
19059;SDS011;9663;48.996;8.334;2022-12-07T00:53:19;5.85;;;2.92;;
19059;SDS011;9663;48.996;8.334;2022-12-07T00:55:45;7.55;;;3.28;;
19059;SDS011;9663;48.996;8.334;2022-12-07T00:58:11;5.70;;;2.67;;
19059;SDS011;9663;48.996;8.334;2022-12-07T01:00:38;6.97;;;3.60;;
19059;SDS011;9663;48.996;8.334;2022-12-07T01:03:06;6.15;;;3.22;;
19059;SDS011;9663;48.996;8.334;2022-12-07T01:05:35;6.72;;;3.00;;
19059;SDS011;9663;48.996;8.334;2022-12-07T01:08:01;5.03;;;2.70;;
19059;SDS011;9663;48.996;8.334;2022-12-07T01:10:28;7.35;;;3.58;;
19059;SDS011;9663;48.996;8.334;2022-12-07T01:12:55;6.43;;;3.25;;
19059;SDS011;9663;48.996;8.334;2022-12-07T01:15:22;6.05;;;3.10;;
19059;SDS011;9663;48.996;8.334;2022-12-07T01:17:47;7.13;;;3.60;;
19059;SDS011;9663;48.996;8.334;2022-12-07T01:20:13;5.60;;;2.90;;
19059;SDS011;9663;48.996;8.334;2022-12-07T01:22:41;6.38;;;3.40;;
19059;SDS011;9663;48.996;8.334;2022-12-07T01:25:08;8.73;;;3.10;;
19059;SDS011;9663;48.996;8.334;2022-12-07T01:27:36;5.30;;;2.75;;
19059;SDS011;9663;48.996;8.334;2022-12-07T01:30:03;5.80;;;2.95;;
19059;SDS011;9663;48.996;8.334;2022-12-07T01:32:32;7.45;;;3.60;;
19059;SDS011;9663;48.996;8.334;2022-12-07T01:34:58;6.72;;;3.15;;
19059;SDS011;9663;48.996;8.334;2022-12-07T01:37:24;6.30;;;3.10;;
19059;SDS011;9663;48.996;8.334;2022-12-07T01:39:50;6.68;;;3.38;;
19059;SDS011;9663;48.996;8.334;2022-12-07T01:42:17;6.45;;;3.30;;
19059;SDS011;9663;48.996;8.334;2022-12-07T01:47:49;6.53;;;3.10;;
19059;SDS011;9663;48.996;8.334;2022-12-07T01:50:20;6.07;;;3.03;;
19059;SDS011;9663;48.996;8.334;2022-12-07T01:52:50;5.88;;;2.92;;
19059;SDS011;9663;48.996;8.334;2022-12-07T01:55:20;6.55;;;3.30;;
19059;SDS011;9663;48.996;8.334;2022-12-07T01:57:49;7.22;;;2.92;;
19059;SDS011;9663;48.996;8.334;2022-12-07T02:00:19;6.28;;;3.00;;
19059;SDS011;9663;48.996;8.334;2022-12-07T02:02:47;6.97;;;3.30;;
19059;SDS011;9663;48.996;8.334;2022-12-07T02:05:20;6.15;;;3.00;;
19059;SDS011;9663;48.996;8.334;2022-12-07T02:07:49;8.23;;;3.72;;
19059;SDS011;9663;48.996;8.334;2022-12-07T02:10:20;5.63;;;2.80;;
19059;SDS011;9663;48.996;8.334;2022-12-07T02:12:54;5.75;;;2.70;;
19059;SDS011;9663;48.996;8.334;2022-12-07T02:15:26;7.32;;;3.50;;
19059;SDS011;9663;48.996;8.334;2022-12-07T02:20:57;5.95;;;3.03;;
19059;SDS011;9663;48.996;8.334;2022-12-07T02:29:24;5.68;;;3.10;;
19059;SDS011;9663;48.996;8.334;2022-12-07T02:34:42;6.30;;;3.10;;
19059;SDS011;9663;48.996;8.334;2022-12-07T02:37:32;7.93;;;3.30;;
19059;SDS011;9663;48.996;8.334;2022-12-07T02:40:06;5.70;;;2.83;;
19059;SDS011;9663;48.996;8.334;2022-12-07T02:42:55;5.38;;;2.70;;
19059;SDS011;9663;48.996;8.334;2022-12-07T02:45:48;6.78;;;3.50;;
19059;SDS011;9663;48.996;8.334;2022-12-07T02:48:18;5.90;;;2.90;;
19059;SDS011;9663;48.996;8.334;2022-12-07T02:50:49;7.55;;;3.20;;
19059;SDS011;9663;48.996;8.334;2022-12-07T02:53:29;6.72;;;2.97;;
19059;SDS011;9663;48.996;8.334;2022-12-07T02:56:07;6.22;;;3.10;;
19059;SDS011;9663;48.996;8.334;2022-12-07T03:11:02;6.35;;;3.20;;
19059;SDS011;9663;48.996;8.334;2022-12-07T03:19:03;6.85;;;3.22;;
19059;SDS011;9663;48.996;8.334;2022-12-07T03:21:44;6.40;;;2.92;;
19059;SDS011;9663;48.996;8.334;2022-12-07T03:24:18;6.55;;;3.40;;
19059;SDS011;9663;48.996;8.334;2022-12-07T03:26:51;7.55;;;3.55;;
19059;SDS011;9663;48.996;8.334;2022-12-07T03:29:27;6.38;;;3.35;;
19059;SDS011;9663;48.996;8.334;2022-12-07T03:32:01;6.53;;;3.13;;
19059;SDS011;9663;48.996;8.334;2022-12-07T03:35:01;7.10;;;3.35;;
19059;SDS011;9663;48.996;8.334;2022-12-07T03:37:38;6.65;;;3.10;;
19059;SDS011;9663;48.996;8.334;2022-12-07T03:42:51;6.55;;;3.53;;
19059;SDS011;9663;48.996;8.334;2022-12-07T03:45:20;7.47;;;3.60;;
19059;SDS011;9663;48.996;8.334;2022-12-07T03:48:08;6.53;;;3.45;;
19059;SDS011;9663;48.996;8.334;2022-12-07T03:53:54;6.03;;;3.17;;
19059;SDS011;9663;48.996;8.334;2022-12-07T03:56:35;8.23;;;3.42;;
19059;SDS011;9663;48.996;8.334;2022-12-07T03:59:02;7.03;;;3.53;;
19059;SDS011;9663;48.996;8.334;2022-12-07T04:01:28;6.30;;;3.25;;
19059;SDS011;9663;48.996;8.334;2022-12-07T04:03:54;6.55;;;3.25;;
19059;SDS011;9663;48.996;8.334;2022-12-07T04:06:19;6.78;;;3.40;;
19059;SDS011;9663;48.996;8.334;2022-12-07T04:08:45;6.72;;;3.33;;
19059;SDS011;9663;48.996;8.334;2022-12-07T04:11:11;5.55;;;3.00;;
19059;SDS011;9663;48.996;8.334;2022-12-07T04:13:36;7.00;;;3.60;;
19059;SDS011;9663;48.996;8.334;2022-12-07T04:16:22;6.75;;;3.63;;
19059;SDS011;9663;48.996;8.334;2022-12-07T04:18:48;6.88;;;3.28;;
19059;SDS011;9663;48.996;8.334;2022-12-07T04:21:13;6.32;;;3.22;;
19059;SDS011;9663;48.996;8.334;2022-12-07T04:23:39;7.20;;;3.67;;
19059;SDS011;9663;48.996;8.334;2022-12-07T04:26:05;6.53;;;3.42;;
19059;SDS011;9663;48.996;8.334;2022-12-07T04:28:30;7.47;;;3.78;;
19059;SDS011;9663;48.996;8.334;2022-12-07T04:30:56;7.30;;;3.50;;
19059;SDS011;9663;48.996;8.334;2022-12-07T04:33:22;6.43;;;3.47;;
19059;SDS011;9663;48.996;8.334;2022-12-07T04:35:48;7.55;;;3.47;;
19059;SDS011;9663;48.996;8.334;2022-12-07T04:38:13;6.55;;;3.33;;
19059;SDS011;9663;48.996;8.334;2022-12-07T04:40:39;7.72;;;3.60;;
19059;SDS011;9663;48.996;8.334;2022-12-07T04:43:05;6.70;;;3.63;;
19059;SDS011;9663;48.996;8.334;2022-12-07T04:45:30;6.82;;;3.60;;
19059;SDS011;9663;48.996;8.334;2022-12-07T04:47:56;6.18;;;2.90;;
19059;SDS011;9663;48.996;8.334;2022-12-07T04:50:22;6.13;;;3.25;;
19059;SDS011;9663;48.996;8.334;2022-12-07T04:52:48;6.95;;;3.80;;
19059;SDS011;9663;48.996;8.334;2022-12-07T04:55:13;7.18;;;3.90;;
19059;SDS011;9663;48.996;8.334;2022-12-07T04:57:39;5.75;;;3.08;;
19059;SDS011;9663;48.996;8.334;2022-12-07T05:00:05;7.68;;;3.90;;
19059;SDS011;9663;48.996;8.334;2022-12-07T05:02:32;6.65;;;3.40;;
19059;SDS011;9663;48.996;8.334;2022-12-07T05:04:57;6.32;;;3.72;;
19059;SDS011;9663;48.996;8.334;2022-12-07T05:07:23;6.50;;;3.25;;
19059;SDS011;9663;48.996;8.334;2022-12-07T05:09:49;6.95;;;3.55;;
19059;SDS011;9663;48.996;8.334;2022-12-07T05:12:14;7.38;;;3.97;;
19059;SDS011;9663;48.996;8.334;2022-12-07T05:14:40;6.38;;;3.40;;
19059;SDS011;9663;48.996;8.334;2022-12-07T05:17:06;7.10;;;3.65;;
19059;SDS011;9663;48.996;8.334;2022-12-07T05:19:31;6.35;;;3.28;;
19059;SDS011;9663;48.996;8.334;2022-12-07T05:21:57;8.32;;;3.90;;
19059;SDS011;9663;48.996;8.334;2022-12-07T05:24:23;7.72;;;3.28;;
19059;SDS011;9663;48.996;8.334;2022-12-07T05:26:48;7.03;;;3.10;;
19059;SDS011;9663;48.996;8.334;2022-12-07T05:29:15;6.72;;;3.38;;
19059;SDS011;9663;48.996;8.334;2022-12-07T05:31:42;7.85;;;3.65;;
19059;SDS011;9663;48.996;8.334;2022-12-07T05:34:09;7.43;;;3.95;;
19059;SDS011;9663;48.996;8.334;2022-12-07T05:36:35;7.22;;;3.85;;
19059;SDS011;9663;48.996;8.334;2022-12-07T05:39:01;6.13;;;3.03;;
19059;SDS011;9663;48.996;8.334;2022-12-07T05:41:27;7.68;;;3.40;;
19059;SDS011;9663;48.996;8.334;2022-12-07T05:44:11;7.00;;;3.60;;
19059;SDS011;9663;48.996;8.334;2022-12-07T05:46:37;6.63;;;3.40;;
19059;SDS011;9663;48.996;8.334;2022-12-07T05:49:03;6.32;;;3.42;;
19059;SDS011;9663;48.996;8.334;2022-12-07T05:51:29;7.00;;;3.38;;
19059;SDS011;9663;48.996;8.334;2022-12-07T05:53:55;7.28;;;3.50;;
19059;SDS011;9663;48.996;8.334;2022-12-07T05:56:21;7.47;;;3.95;;
19059;SDS011;9663;48.996;8.334;2022-12-07T05:58:47;7.18;;;3.50;;
19059;SDS011;9663;48.996;8.334;2022-12-07T06:01:32;7.07;;;3.60;;
19059;SDS011;9663;48.996;8.334;2022-12-07T06:03:57;7.55;;;3.83;;
19059;SDS011;9663;48.996;8.334;2022-12-07T06:06:23;7.55;;;3.67;;
19059;SDS011;9663;48.996;8.334;2022-12-07T06:08:49;8.10;;;3.72;;
19059;SDS011;9663;48.996;8.334;2022-12-07T06:11:15;7.40;;;4.00;;
19059;SDS011;9663;48.996;8.334;2022-12-07T06:13:59;7.60;;;3.75;;
19059;SDS011;9663;48.996;8.334;2022-12-07T06:16:25;8.00;;;4.20;;
19059;SDS011;9663;48.996;8.334;2022-12-07T06:18:50;7.60;;;3.90;;
19059;SDS011;9663;48.996;8.334;2022-12-07T06:21:16;7.03;;;3.83;;
19059;SDS011;9663;48.996;8.334;2022-12-07T06:23:42;7.10;;;3.70;;
19059;SDS011;9663;48.996;8.334;2022-12-07T06:26:07;6.93;;;3.80;;
19059;SDS011;9663;48.996;8.334;2022-12-07T06:28:33;8.50;;;3.75;;
19059;SDS011;9663;48.996;8.334;2022-12-07T06:30:59;7.50;;;3.72;;
19059;SDS011;9663;48.996;8.334;2022-12-07T06:33:27;6.55;;;3.20;;
19059;SDS011;9663;48.996;8.334;2022-12-07T06:35:53;7.68;;;4.13;;
19059;SDS011;9663;48.996;8.334;2022-12-07T06:38:19;7.38;;;3.42;;
19059;SDS011;9663;48.996;8.334;2022-12-07T06:40:45;7.97;;;4.45;;
19059;SDS011;9663;48.996;8.334;2022-12-07T06:43:10;8.82;;;3.85;;
19059;SDS011;9663;48.996;8.334;2022-12-07T06:45:36;9.05;;;4.35;;
19059;SDS011;9663;48.996;8.334;2022-12-07T06:48:02;7.07;;;3.63;;
19059;SDS011;9663;48.996;8.334;2022-12-07T06:50:27;7.97;;;3.90;;
19059;SDS011;9663;48.996;8.334;2022-12-07T06:52:53;7.35;;;3.83;;
19059;SDS011;9663;48.996;8.334;2022-12-07T06:55:19;6.25;;;3.33;;
19059;SDS011;9663;48.996;8.334;2022-12-07T06:57:45;6.53;;;3.28;;
19059;SDS011;9663;48.996;8.334;2022-12-07T07:00:11;6.53;;;3.67;;
19059;SDS011;9663;48.996;8.334;2022-12-07T07:02:37;6.47;;;3.45;;
19059;SDS011;9663;48.996;8.334;2022-12-07T07:05:03;7.30;;;3.50;;
19059;SDS011;9663;48.996;8.334;2022-12-07T07:07:29;8.18;;;3.83;;
19059;SDS011;9663;48.996;8.334;2022-12-07T07:09:55;8.00;;;4.10;;
19059;SDS011;9663;48.996;8.334;2022-12-07T07:12:20;8.18;;;3.83;;
19059;SDS011;9663;48.996;8.334;2022-12-07T07:14:46;6.32;;;3.42;;
19059;SDS011;9663;48.996;8.334;2022-12-07T07:17:12;7.80;;;3.42;;
19059;SDS011;9663;48.996;8.334;2022-12-07T07:19:38;7.05;;;3.47;;
19059;SDS011;9663;48.996;8.334;2022-12-07T07:22:04;7.57;;;3.92;;
19059;SDS011;9663;48.996;8.334;2022-12-07T07:24:29;8.45;;;4.05;;
19059;SDS011;9663;48.996;8.334;2022-12-07T07:26:55;8.57;;;4.38;;
19059;SDS011;9663;48.996;8.334;2022-12-07T07:29:21;6.88;;;3.88;;
19059;SDS011;9663;48.996;8.334;2022-12-07T07:31:47;8.85;;;4.25;;
19059;SDS011;9663;48.996;8.334;2022-12-07T07:34:12;7.07;;;3.70;;
19059;SDS011;9663;48.996;8.334;2022-12-07T07:36:38;6.93;;;3.55;;
19059;SDS011;9663;48.996;8.334;2022-12-07T07:39:04;7.43;;;3.90;;
19059;SDS011;9663;48.996;8.334;2022-12-07T07:41:30;7.53;;;3.90;;
19059;SDS011;9663;48.996;8.334;2022-12-07T07:43:56;6.93;;;3.38;;
19059;SDS011;9663;48.996;8.334;2022-12-07T07:46:22;7.30;;;3.80;;
19059;SDS011;9663;48.996;8.334;2022-12-07T07:48:48;6.35;;;3.53;;
19059;SDS011;9663;48.996;8.334;2022-12-07T07:51:13;6.45;;;3.50;;
19059;SDS011;9663;48.996;8.334;2022-12-07T07:53:39;8.98;;;3.90;;
19059;SDS011;9663;48.996;8.334;2022-12-07T07:56:05;6.80;;;3.55;;
19059;SDS011;9663;48.996;8.334;2022-12-07T07:58:31;7.60;;;3.80;;
19059;SDS011;9663;48.996;8.334;2022-12-07T08:00:56;8.35;;;4.28;;
19059;SDS011;9663;48.996;8.334;2022-12-07T08:03:28;8.65;;;3.90;;
19059;SDS011;9663;48.996;8.334;2022-12-07T08:05:54;8.25;;;4.47;;
19059;SDS011;9663;48.996;8.334;2022-12-07T08:08:19;7.22;;;3.78;;
19059;SDS011;9663;48.996;8.334;2022-12-07T08:10:45;7.40;;;3.70;;
19059;SDS011;9663;48.996;8.334;2022-12-07T08:13:11;8.35;;;3.92;;
19059;SDS011;9663;48.996;8.334;2022-12-07T08:15:38;7.93;;;4.25;;
19059;SDS011;9663;48.996;8.334;2022-12-07T08:18:07;7.55;;;4.18;;
19059;SDS011;9663;48.996;8.334;2022-12-07T08:20:33;7.32;;;3.92;;
19059;SDS011;9663;48.996;8.334;2022-12-07T08:23:01;7.88;;;3.95;;
19059;SDS011;9663;48.996;8.334;2022-12-07T08:25:27;6.70;;;3.58;;
19059;SDS011;9663;48.996;8.334;2022-12-07T08:27:53;7.25;;;3.60;;
19059;SDS011;9663;48.996;8.334;2022-12-07T08:30:19;7.43;;;3.58;;
19059;SDS011;9663;48.996;8.334;2022-12-07T08:32:46;7.10;;;3.90;;
19059;SDS011;9663;48.996;8.334;2022-12-07T08:35:13;7.68;;;3.72;;
19059;SDS011;9663;48.996;8.334;2022-12-07T08:37:39;8.13;;;4.00;;
19059;SDS011;9663;48.996;8.334;2022-12-07T08:40:06;7.60;;;3.53;;
19059;SDS011;9663;48.996;8.334;2022-12-07T08:42:34;6.28;;;3.63;;
19059;SDS011;9663;48.996;8.334;2022-12-07T08:45:05;6.60;;;3.42;;
19059;SDS011;9663;48.996;8.334;2022-12-07T08:47:35;7.25;;;3.47;;
19059;SDS011;9663;48.996;8.334;2022-12-07T08:50:05;6.28;;;3.15;;
19059;SDS011;9663;48.996;8.334;2022-12-07T08:52:34;6.20;;;3.00;;
19059;SDS011;9663;48.996;8.334;2022-12-07T08:55:02;6.75;;;3.30;;
19059;SDS011;9663;48.996;8.334;2022-12-07T08:57:30;5.95;;;2.70;;
19059;SDS011;9663;48.996;8.334;2022-12-07T09:00:01;5.90;;;3.22;;
19059;SDS011;9663;48.996;8.334;2022-12-07T09:02:29;6.90;;;3.35;;
19059;SDS011;9663;48.996;8.334;2022-12-07T09:04:56;5.50;;;2.70;;
19059;SDS011;9663;48.996;8.334;2022-12-07T09:07:22;7.82;;;3.88;;
19059;SDS011;9663;48.996;8.334;2022-12-07T09:09:49;6.65;;;3.70;;
19059;SDS011;9663;48.996;8.334;2022-12-07T09:12:15;7.70;;;4.10;;
19059;SDS011;9663;48.996;8.334;2022-12-07T09:14:40;7.57;;;3.72;;
19059;SDS011;9663;48.996;8.334;2022-12-07T09:17:07;9.23;;;5.63;;
19059;SDS011;9663;48.996;8.334;2022-12-07T09:19:35;8.52;;;4.40;;
19059;SDS011;9663;48.996;8.334;2022-12-07T09:22:02;7.47;;;4.22;;
19059;SDS011;9663;48.996;8.334;2022-12-07T09:24:29;7.43;;;3.95;;
19059;SDS011;9663;48.996;8.334;2022-12-07T09:26:56;7.30;;;3.78;;
19059;SDS011;9663;48.996;8.334;2022-12-07T09:29:23;7.43;;;3.65;;
19059;SDS011;9663;48.996;8.334;2022-12-07T09:31:49;9.23;;;3.90;;
19059;SDS011;9663;48.996;8.334;2022-12-07T09:34:14;7.07;;;3.60;;
19059;SDS011;9663;48.996;8.334;2022-12-07T09:36:40;6.85;;;3.70;;
19059;SDS011;9663;48.996;8.334;2022-12-07T09:39:07;6.95;;;3.75;;
19059;SDS011;9663;48.996;8.334;2022-12-07T09:41:33;7.07;;;3.75;;
19059;SDS011;9663;48.996;8.334;2022-12-07T09:44:06;8.15;;;4.30;;
19059;SDS011;9663;48.996;8.334;2022-12-07T09:46:39;6.47;;;3.53;;
19059;SDS011;9663;48.996;8.334;2022-12-07T09:49:12;6.88;;;3.95;;
19059;SDS011;9663;48.996;8.334;2022-12-07T09:51:47;6.55;;;3.25;;
19059;SDS011;9663;48.996;8.334;2022-12-07T09:54:29;5.78;;;2.92;;
19059;SDS011;9663;48.996;8.334;2022-12-07T09:56:56;6.45;;;3.33;;
19059;SDS011;9663;48.996;8.334;2022-12-07T09:59:21;6.07;;;3.05;;
19059;SDS011;9663;48.996;8.334;2022-12-07T10:01:48;6.45;;;3.38;;
19059;SDS011;9663;48.996;8.334;2022-12-07T10:06:46;6.88;;;3.72;;
19059;SDS011;9663;48.996;8.334;2022-12-07T10:09:14;6.60;;;3.47;;
19059;SDS011;9663;48.996;8.334;2022-12-07T10:14:40;6.43;;;3.20;;
19059;SDS011;9663;48.996;8.334;2022-12-07T10:17:32;6.53;;;3.33;;
19059;SDS011;9663;48.996;8.334;2022-12-07T10:20:15;5.88;;;3.20;;
19059;SDS011;9663;48.996;8.334;2022-12-07T10:23:02;6.88;;;3.15;;
19059;SDS011;9663;48.996;8.334;2022-12-07T10:25:32;7.80;;;3.28;;
19059;SDS011;9663;48.996;8.334;2022-12-07T10:28:02;7.00;;;3.20;;
19059;SDS011;9663;48.996;8.334;2022-12-07T10:30:46;6.50;;;3.15;;
19059;SDS011;9663;48.996;8.334;2022-12-07T10:41:35;5.93;;;3.20;;
19059;SDS011;9663;48.996;8.334;2022-12-07T10:44:21;6.78;;;3.70;;
19059;SDS011;9663;48.996;8.334;2022-12-07T10:47:14;7.47;;;3.80;;
19059;SDS011;9663;48.996;8.334;2022-12-07T11:04:11;6.68;;;3.38;;
19059;SDS011;9663;48.996;8.334;2022-12-07T11:22:17;7.78;;;3.88;;
19059;SDS011;9663;48.996;8.334;2022-12-07T11:30:52;8.63;;;3.80;;
19059;SDS011;9663;48.996;8.334;2022-12-07T11:33:52;7.47;;;3.97;;
19059;SDS011;9663;48.996;8.334;2022-12-07T11:47:43;6.82;;;3.45;;
19059;SDS011;9663;48.996;8.334;2022-12-07T11:53:05;7.32;;;4.18;;
19059;SDS011;9663;48.996;8.334;2022-12-07T11:55:42;6.65;;;3.20;;
19059;SDS011;9663;48.996;8.334;2022-12-07T12:04:34;6.30;;;3.10;;
19059;SDS011;9663;48.996;8.334;2022-12-07T12:07:14;6.57;;;3.20;;
19059;SDS011;9663;48.996;8.334;2022-12-07T12:10:03;6.57;;;3.75;;
19059;SDS011;9663;48.996;8.334;2022-12-07T12:13:02;7.57;;;3.35;;
19059;SDS011;9663;48.996;8.334;2022-12-07T12:22:20;7.07;;;3.78;;
19059;SDS011;9663;48.996;8.334;2022-12-07T12:24:55;9.20;;;3.50;;
19059;SDS011;9663;48.996;8.334;2022-12-07T12:30:01;7.40;;;3.55;;
19059;SDS011;9663;48.996;8.334;2022-12-07T12:40:55;7.68;;;4.20;;
19059;SDS011;9663;48.996;8.334;2022-12-07T12:43:39;8.07;;;4.50;;
19059;SDS011;9663;48.996;8.334;2022-12-07T12:49:14;7.78;;;4.00;;
19059;SDS011;9663;48.996;8.334;2022-12-07T12:57:34;7.63;;;3.90;;
19059;SDS011;9663;48.996;8.334;2022-12-07T13:00:22;7.68;;;3.88;;
19059;SDS011;9663;48.996;8.334;2022-12-07T13:02:54;9.27;;;3.72;;
19059;SDS011;9663;48.996;8.334;2022-12-07T13:05:30;9.77;;;3.70;;
19059;SDS011;9663;48.996;8.334;2022-12-07T13:08:01;6.65;;;3.47;;
19059;SDS011;9663;48.996;8.334;2022-12-07T13:10:41;7.40;;;3.58;;
19059;SDS011;9663;48.996;8.334;2022-12-07T13:15:52;6.63;;;3.20;;
19059;SDS011;9663;48.996;8.334;2022-12-07T13:18:27;6.40;;;3.30;;
19059;SDS011;9663;48.996;8.334;2022-12-07T13:26:18;6.78;;;3.20;;
19059;SDS011;9663;48.996;8.334;2022-12-07T13:31:39;5.63;;;2.88;;
19059;SDS011;9663;48.996;8.334;2022-12-07T13:37:08;6.28;;;3.00;;
19059;SDS011;9663;48.996;8.334;2022-12-07T13:42:45;5.85;;;2.70;;
19059;SDS011;9663;48.996;8.334;2022-12-07T13:45:21;6.10;;;3.00;;
19059;SDS011;9663;48.996;8.334;2022-12-07T13:51:16;6.20;;;2.90;;
19059;SDS011;9663;48.996;8.334;2022-12-07T13:53:55;6.13;;;2.95;;
19059;SDS011;9663;48.996;8.334;2022-12-07T13:56:31;5.20;;;2.70;;
19059;SDS011;9663;48.996;8.334;2022-12-07T13:58:59;6.00;;;3.00;;
19059;SDS011;9663;48.996;8.334;2022-12-07T14:01:26;5.72;;;3.17;;
19059;SDS011;9663;48.996;8.334;2022-12-07T14:03:55;6.40;;;3.13;;
19059;SDS011;9663;48.996;8.334;2022-12-07T14:06:24;6.07;;;2.88;;
19059;SDS011;9663;48.996;8.334;2022-12-07T14:09:07;6.88;;;3.28;;
19059;SDS011;9663;48.996;8.334;2022-12-07T14:11:47;6.07;;;3.15;;
19059;SDS011;9663;48.996;8.334;2022-12-07T14:14:20;5.63;;;2.72;;
19059;SDS011;9663;48.996;8.334;2022-12-07T14:17:12;6.10;;;2.65;;
19059;SDS011;9663;48.996;8.334;2022-12-07T14:19:48;5.43;;;2.70;;
19059;SDS011;9663;48.996;8.334;2022-12-07T14:22:24;6.25;;;3.00;;
19059;SDS011;9663;48.996;8.334;2022-12-07T14:24:59;6.30;;;2.92;;
19059;SDS011;9663;48.996;8.334;2022-12-07T14:27:51;5.53;;;2.72;;
19059;SDS011;9663;48.996;8.334;2022-12-07T14:30:29;5.45;;;2.90;;
19059;SDS011;9663;48.996;8.334;2022-12-07T14:32:59;6.82;;;3.05;;
19059;SDS011;9663;48.996;8.334;2022-12-07T14:35:30;5.75;;;2.65;;
19059;SDS011;9663;48.996;8.334;2022-12-07T14:37:57;5.47;;;2.65;;
19059;SDS011;9663;48.996;8.334;2022-12-07T14:40:24;5.70;;;2.63;;
19059;SDS011;9663;48.996;8.334;2022-12-07T14:45:31;5.65;;;2.78;;
19059;SDS011;9663;48.996;8.334;2022-12-07T14:47:57;5.00;;;2.58;;
19059;SDS011;9663;48.996;8.334;2022-12-07T14:50:23;6.65;;;2.92;;
19059;SDS011;9663;48.996;8.334;2022-12-07T14:52:51;6.25;;;2.72;;
19059;SDS011;9663;48.996;8.334;2022-12-07T14:55:23;5.25;;;2.75;;
19059;SDS011;9663;48.996;8.334;2022-12-07T14:57:52;5.13;;;2.45;;
19059;SDS011;9663;48.996;8.334;2022-12-07T15:00:19;4.78;;;2.40;;
19059;SDS011;9663;48.996;8.334;2022-12-07T15:02:49;5.60;;;2.30;;
19059;SDS011;9663;48.996;8.334;2022-12-07T15:05:16;6.97;;;2.60;;
19059;SDS011;9663;48.996;8.334;2022-12-07T15:07:43;5.35;;;2.40;;
19059;SDS011;9663;48.996;8.334;2022-12-07T15:10:17;5.22;;;2.53;;
19059;SDS011;9663;48.996;8.334;2022-12-07T15:12:54;5.25;;;2.70;;
19059;SDS011;9663;48.996;8.334;2022-12-07T15:15:45;5.38;;;2.53;;
19059;SDS011;9663;48.996;8.334;2022-12-07T15:18:11;5.43;;;2.53;;
19059;SDS011;9663;48.996;8.334;2022-12-07T15:20:38;5.18;;;2.40;;
19059;SDS011;9663;48.996;8.334;2022-12-07T15:23:04;5.15;;;2.20;;
19059;SDS011;9663;48.996;8.334;2022-12-07T15:25:29;5.80;;;2.90;;
19059;SDS011;9663;48.996;8.334;2022-12-07T15:27:55;5.40;;;2.45;;
19059;SDS011;9663;48.996;8.334;2022-12-07T15:30:21;6.22;;;2.80;;
19059;SDS011;9663;48.996;8.334;2022-12-07T15:32:51;6.20;;;2.78;;
19059;SDS011;9663;48.996;8.334;2022-12-07T15:35:18;5.30;;;2.45;;
19059;SDS011;9663;48.996;8.334;2022-12-07T15:37:45;6.45;;;2.63;;
19059;SDS011;9663;48.996;8.334;2022-12-07T15:40:11;5.63;;;2.55;;
19059;SDS011;9663;48.996;8.334;2022-12-07T15:42:38;5.10;;;2.28;;
19059;SDS011;9663;48.996;8.334;2022-12-07T15:45:04;5.82;;;2.58;;
19059;SDS011;9663;48.996;8.334;2022-12-07T15:47:33;5.40;;;2.72;;
19059;SDS011;9663;48.996;8.334;2022-12-07T15:50:05;6.68;;;2.72;;
19059;SDS011;9663;48.996;8.334;2022-12-07T15:52:35;5.97;;;2.80;;
19059;SDS011;9663;48.996;8.334;2022-12-07T15:55:01;6.35;;;2.58;;
19059;SDS011;9663;48.996;8.334;2022-12-07T15:57:30;5.25;;;2.55;;
19059;SDS011;9663;48.996;8.334;2022-12-07T16:00:02;6.93;;;3.00;;
19059;SDS011;9663;48.996;8.334;2022-12-07T16:02:33;6.75;;;2.90;;
19059;SDS011;9663;48.996;8.334;2022-12-07T16:05:00;6.07;;;3.08;;
19059;SDS011;9663;48.996;8.334;2022-12-07T16:07:27;5.53;;;2.92;;
19059;SDS011;9663;48.996;8.334;2022-12-07T16:09:52;6.47;;;3.13;;
19059;SDS011;9663;48.996;8.334;2022-12-07T16:12:18;6.47;;;2.95;;
19059;SDS011;9663;48.996;8.334;2022-12-07T16:14:44;6.18;;;2.85;;
19059;SDS011;9663;48.996;8.334;2022-12-07T16:17:10;7.05;;;3.45;;
19059;SDS011;9663;48.996;8.334;2022-12-07T16:19:36;6.95;;;3.15;;
19059;SDS011;9663;48.996;8.334;2022-12-07T16:22:03;6.03;;;2.92;;
19059;SDS011;9663;48.996;8.334;2022-12-07T16:24:30;5.88;;;3.00;;
19059;SDS011;9663;48.996;8.334;2022-12-07T16:26:57;6.25;;;3.05;;
19059;SDS011;9663;48.996;8.334;2022-12-07T16:29:23;6.53;;;3.03;;
19059;SDS011;9663;48.996;8.334;2022-12-07T16:31:50;6.63;;;3.35;;
19059;SDS011;9663;48.996;8.334;2022-12-07T16:34:17;5.80;;;2.63;;
19059;SDS011;9663;48.996;8.334;2022-12-07T16:36:46;5.68;;;2.72;;
19059;SDS011;9663;48.996;8.334;2022-12-07T16:39:12;7.72;;;3.40;;
19059;SDS011;9663;48.996;8.334;2022-12-07T16:41:38;6.90;;;3.33;;
19059;SDS011;9663;48.996;8.334;2022-12-07T16:44:04;6.65;;;3.15;;
19059;SDS011;9663;48.996;8.334;2022-12-07T16:46:34;7.68;;;3.08;;
19059;SDS011;9663;48.996;8.334;2022-12-07T16:49:01;7.57;;;3.28;;
19059;SDS011;9663;48.996;8.334;2022-12-07T16:51:27;7.75;;;3.50;;
19059;SDS011;9663;48.996;8.334;2022-12-07T16:53:54;6.32;;;3.17;;
19059;SDS011;9663;48.996;8.334;2022-12-07T16:56:20;8.18;;;3.47;;
19059;SDS011;9663;48.996;8.334;2022-12-07T16:58:46;7.65;;;3.05;;
19059;SDS011;9663;48.996;8.334;2022-12-07T17:01:18;7.70;;;3.70;;
19059;SDS011;9663;48.996;8.334;2022-12-07T17:03:47;6.28;;;3.13;;
19059;SDS011;9663;48.996;8.334;2022-12-07T17:06:21;7.05;;;3.53;;
19059;SDS011;9663;48.996;8.334;2022-12-07T17:08:50;6.68;;;3.05;;
19059;SDS011;9663;48.996;8.334;2022-12-07T17:11:20;8.68;;;3.30;;
19059;SDS011;9663;48.996;8.334;2022-12-07T17:13:51;8.43;;;3.72;;
19059;SDS011;9663;48.996;8.334;2022-12-07T17:16:36;6.40;;;3.22;;
19059;SDS011;9663;48.996;8.334;2022-12-07T17:19:06;6.38;;;3.30;;
19059;SDS011;9663;48.996;8.334;2022-12-07T17:21:35;7.15;;;2.92;;
19059;SDS011;9663;48.996;8.334;2022-12-07T17:24:03;7.53;;;3.35;;
19059;SDS011;9663;48.996;8.334;2022-12-07T17:26:34;7.90;;;3.53;;
19059;SDS011;9663;48.996;8.334;2022-12-07T17:29:02;7.60;;;3.95;;
19059;SDS011;9663;48.996;8.334;2022-12-07T17:31:31;8.30;;;3.70;;
19059;SDS011;9663;48.996;8.334;2022-12-07T17:33:57;7.97;;;4.30;;
19059;SDS011;9663;48.996;8.334;2022-12-07T17:36:25;7.05;;;3.45;;
19059;SDS011;9663;48.996;8.334;2022-12-07T17:38:53;7.35;;;3.80;;
19059;SDS011;9663;48.996;8.334;2022-12-07T17:41:20;7.45;;;4.07;;
19059;SDS011;9663;48.996;8.334;2022-12-07T17:44:11;7.00;;;3.47;;
19059;SDS011;9663;48.996;8.334;2022-12-07T17:46:41;7.10;;;3.50;;
19059;SDS011;9663;48.996;8.334;2022-12-07T17:49:09;7.80;;;3.50;;
19059;SDS011;9663;48.996;8.334;2022-12-07T17:51:35;7.53;;;3.85;;
19059;SDS011;9663;48.996;8.334;2022-12-07T17:54:19;6.63;;;3.40;;
19059;SDS011;9663;48.996;8.334;2022-12-07T17:56:46;7.07;;;3.72;;